Portada
METAR-TAF:

METAR-TAF

Aeroports :

Jammu, Índia

latitud: 32-41-21N, longitud: 74-50-15E, altitud: 314 m

METAR: manca

Hora: 03:56 (22:26 UTC)

Pronòstic

L'informe es va fer fa 12 hores i 56 minuts, a les 09:30 UTC
Pronòstic vàlid del 17 a les 18 UTC al 18 a les 12 UTC
Vent 2 kt amb direcció variable
Visibilitat: 6000 m
Temporalment
l' 18 a les 01 UTC al 18 a les 03 UTC
Visibilitat: 4000 m
calitja

TAF: VIJU 170930Z 1718/1812 VRB02KT 6000 NSC TEMPO 1801/1803 4000 HZ

Observacions i pronòstics meteorològics de més de 4000 aeroports (METAR i TAF).

Les estacions disponibles són els punts grocs i vermells al mapa.

Posi el ratolí al punt desitjat per veure el nom de l'estació.

Feu clic per veure les observacions i els pronòstics meteorològics.

Per canviar el mapa: feu clic els botons verds amb una creu de color negre per apropar; al botó verd amb un guió per allunyar la imatge; o en les fletxes verdes per a mapes adjacents.


METAR-TAF: